Terminal Aerodrome Forecast
Issued by NWS Portland, OR

Home | Current Version | Previous Version | Text Only | Print | Product List | Glossary On
Versions: 1 2 3 4 5 6 7 8 9 10 11 12 13 14 15 16 17 18 19 20 21 22 23 24 25 26
000
FTUS46 KPQR 231139
TAFPDX
TAF
KPDX 231139Z 2312/2412 19006KT P6SM SCT015 OVC050
      TEMPO 2312/2316 4SM -DZ BKN015 OVC050
     FM231800 21011KT P6SM SCT025 BKN050 OVC080
      TEMPO 2318/2322 -RA BKN025 OVC050
     FM240200 19006KT P6SM SCT025 BKN050
     FM240600 VRB04KT P6SM SCT008 BKN020 OVC060=

USA.gov is the U.S. government's official web portal to all federal, state and local government web resources and services.